Phoenix, AZ (85083)

9:04 AM MST on August 29, 2015 (GMT -0700)
Arizona Hillcrest | | Change Station
CLOSE
Current Station
Personal Weather Station
Location: Phoenix, AZ
Elevation: 1470 ft
Nearby Weather Stations

Elev 1470 ft 33.73 °N, 112.13 °W | Updated 13 minutes ago

Clear
Clear
94.5 °F
Feels Like 93 °F
N
1.1
Wind Variable Wind from NNE

Today
High -- | Low -- °F
--% Chance of Precip.
Yesterday
High -- | Low -- °F
Precip. -- in
6:00 AM 6:58 PM
Full, 100% visible
Pressure 29.81 in
Visibility 10.0 miles
Clouds Clear
Heat Index 93 °F
Dew Point 57 °F
Humidity 29%
Rainfall 0.00 in
Snow Depth Not available.
UV 4 out of 12
Pollen 5.10 out of 12
Air Quality Not available.
Flu Activity Not available.
METAR KDVT 291553Z 13009KT 10SM CLR 34/13 A2990 RMK AO2 SLP095 T03440133
Pressure 29.81 in
Visibility 10.0 miles
Clouds Clear
Heat Index 93 °F
Dew Point 57 °F
Humidity 29%
Rainfall 0.00 in
Snow Depth Not available.
UV 4 out of 12
Pollen 5.10 out of 12
Air Quality Not available.
Flu Activity Not available.
METAR KDVT 291553Z 13009KT 10SM CLR 34/13 A2990 RMK AO2 SLP095 T03440133

10-Day Weather Forecast

×

Almanac

Astronomy

Aug. 29, 2015 Rise Set
Actual Time
Civil Twilight
Nautical Twilight
Astronomical Twilight
Moon
Length of Visible Light
Length of Day
Tomorrow will be .
, % of the Moon is Illuminated

Today's Extremes

State Highs State Lows

Community

WunderPhotos

Upload Photos

1,850,709 photos uploaded!

WunderBlogs® & News

Nearby

Air Quality

  Air Quality AQ Index Pollutant
Not available.

Snow Depth

Station Depth Elevation

Earthquake Activity

City Distance Mag. Time & Date
Minimum magnitude displayed is 2.5.

Coastal Water Temperatures

Place Temperature

Stations

Nearby Weather Stations

Station Location Temp. Windchill Dew Point Humidity Wind Precip. Elev Updated Type